sensor_id;sensor_type;location;lat;lon;timestamp;temperature;humidity
20977;DHT22;10647;51.016;3.720;2022-07-17T00:01:58;19.10;83.80
20977;DHT22;10647;51.016;3.720;2022-07-17T00:04:26;19.00;83.30
20977;DHT22;10647;51.016;3.720;2022-07-17T00:06:54;19.00;83.50
20977;DHT22;10647;51.016;3.720;2022-07-17T00:09:21;19.00;83.80
20977;DHT22;10647;51.016;3.720;2022-07-17T00:11:49;18.90;84.00
20977;DHT22;10647;51.016;3.720;2022-07-17T00:14:16;18.90;84.30
20977;DHT22;10647;51.016;3.720;2022-07-17T00:16:44;18.80;84.40
20977;DHT22;10647;51.016;3.720;2022-07-17T00:19:11;18.80;84.60
20977;DHT22;10647;51.016;3.720;2022-07-17T00:21:39;18.70;84.70
20977;DHT22;10647;51.016;3.720;2022-07-17T00:24:06;18.70;85.10
20977;DHT22;10647;51.016;3.720;2022-07-17T00:26:34;18.70;85.30
20977;DHT22;10647;51.016;3.720;2022-07-17T00:29:04;18.60;85.50
20977;DHT22;10647;51.016;3.720;2022-07-17T00:31:31;18.60;85.60
20977;DHT22;10647;51.016;3.720;2022-07-17T00:33:59;18.60;85.70
20977;DHT22;10647;51.016;3.720;2022-07-17T00:36:26;18.50;85.80
20977;DHT22;10647;51.016;3.720;2022-07-17T00:38:54;18.50;86.00
20977;DHT22;10647;51.016;3.720;2022-07-17T00:41:21;18.50;86.20
20977;DHT22;10647;51.016;3.720;2022-07-17T00:43:49;18.50;86.30
20977;DHT22;10647;51.016;3.720;2022-07-17T00:46:17;18.40;86.30
20977;DHT22;10647;51.016;3.720;2022-07-17T00:48:45;18.40;86.30
20977;DHT22;10647;51.016;3.720;2022-07-17T00:51:12;18.40;86.30
20977;DHT22;10647;51.016;3.720;2022-07-17T00:53:41;18.40;86.60
20977;DHT22;10647;51.016;3.720;2022-07-17T00:56:10;18.40;86.80
20977;DHT22;10647;51.016;3.720;2022-07-17T00:58:39;18.30;87.00
20977;DHT22;10647;51.016;3.720;2022-07-17T01:01:06;18.30;87.20
20977;DHT22;10647;51.016;3.720;2022-07-17T01:03:34;18.20;87.30
20977;DHT22;10647;51.016;3.720;2022-07-17T01:06:03;18.20;87.50
20977;DHT22;10647;51.016;3.720;2022-07-17T01:08:32;18.20;87.70
20977;DHT22;10647;51.016;3.720;2022-07-17T01:11:00;18.20;88.10
20977;DHT22;10647;51.016;3.720;2022-07-17T01:13:28;18.10;88.20
20977;DHT22;10647;51.016;3.720;2022-07-17T01:15:56;18.00;88.40
20977;DHT22;10647;51.016;3.720;2022-07-17T01:18:24;18.00;88.70
20977;DHT22;10647;51.016;3.720;2022-07-17T01:20:52;18.00;89.00
20977;DHT22;10647;51.016;3.720;2022-07-17T01:23:20;18.00;89.20
20977;DHT22;10647;51.016;3.720;2022-07-17T01:25:47;18.00;89.40
20977;DHT22;10647;51.016;3.720;2022-07-17T01:28:15;17.90;89.50
20977;DHT22;10647;51.016;3.720;2022-07-17T01:30:49;17.90;89.80
20977;DHT22;10647;51.016;3.720;2022-07-17T01:33:18;17.90;90.00
20977;DHT22;10647;51.016;3.720;2022-07-17T01:36:05;17.80;90.00
20977;DHT22;10647;51.016;3.720;2022-07-17T01:38:32;17.80;90.30
20977;DHT22;10647;51.016;3.720;2022-07-17T01:41:03;17.70;90.40
20977;DHT22;10647;51.016;3.720;2022-07-17T01:43:30;17.70;90.60
20977;DHT22;10647;51.016;3.720;2022-07-17T01:45:58;17.70;90.70
20977;DHT22;10647;51.016;3.720;2022-07-17T01:48:27;17.60;90.80
20977;DHT22;10647;51.016;3.720;2022-07-17T01:50:56;17.60;90.90
20977;DHT22;10647;51.016;3.720;2022-07-17T01:53:23;17.60;91.10
20977;DHT22;10647;51.016;3.720;2022-07-17T01:55:51;17.50;91.10
20977;DHT22;10647;51.016;3.720;2022-07-17T01:58:20;17.50;91.30
20977;DHT22;10647;51.016;3.720;2022-07-17T02:00:47;17.50;91.40
20977;DHT22;10647;51.016;3.720;2022-07-17T02:03:15;17.50;91.50
20977;DHT22;10647;51.016;3.720;2022-07-17T02:05:43;17.40;91.70
20977;DHT22;10647;51.016;3.720;2022-07-17T02:08:10;17.40;91.80
20977;DHT22;10647;51.016;3.720;2022-07-17T02:10:38;17.40;92.10
20977;DHT22;10647;51.016;3.720;2022-07-17T02:13:06;17.30;92.10
20977;DHT22;10647;51.016;3.720;2022-07-17T02:15:34;17.30;92.30
20977;DHT22;10647;51.016;3.720;2022-07-17T02:18:01;17.30;92.50
20977;DHT22;10647;51.016;3.720;2022-07-17T02:20:29;17.30;92.60
20977;DHT22;10647;51.016;3.720;2022-07-17T02:22:56;17.30;92.80
20977;DHT22;10647;51.016;3.720;2022-07-17T02:25:24;17.20;92.90
20977;DHT22;10647;51.016;3.720;2022-07-17T02:27:51;17.20;93.10
20977;DHT22;10647;51.016;3.720;2022-07-17T02:30:19;17.10;93.40
20977;DHT22;10647;51.016;3.720;2022-07-17T02:32:46;17.10;93.60
20977;DHT22;10647;51.016;3.720;2022-07-17T02:35:14;17.10;93.90
20977;DHT22;10647;51.016;3.720;2022-07-17T02:37:42;17.10;94.10
20977;DHT22;10647;51.016;3.720;2022-07-17T02:40:12;17.10;94.20
20977;DHT22;10647;51.016;3.720;2022-07-17T02:42:40;17.00;94.50
20977;DHT22;10647;51.016;3.720;2022-07-17T02:45:08;17.00;94.70
20977;DHT22;10647;51.016;3.720;2022-07-17T02:47:36;17.00;94.90
20977;DHT22;10647;51.016;3.720;2022-07-17T02:50:06;16.90;95.10
20977;DHT22;10647;51.016;3.720;2022-07-17T02:52:34;16.90;95.30
20977;DHT22;10647;51.016;3.720;2022-07-17T02:55:01;16.90;95.50
20977;DHT22;10647;51.016;3.720;2022-07-17T02:57:29;16.90;95.70
20977;DHT22;10647;51.016;3.720;2022-07-17T02:59:56;16.80;95.90
20977;DHT22;10647;51.016;3.720;2022-07-17T03:02:24;16.80;96.10
20977;DHT22;10647;51.016;3.720;2022-07-17T03:04:51;16.80;96.30
20977;DHT22;10647;51.016;3.720;2022-07-17T03:07:19;16.80;96.50
20977;DHT22;10647;51.016;3.720;2022-07-17T03:09:47;16.80;96.80
20977;DHT22;10647;51.016;3.720;2022-07-17T03:12:14;16.70;97.00
20977;DHT22;10647;51.016;3.720;2022-07-17T03:14:42;16.70;97.20
20977;DHT22;10647;51.016;3.720;2022-07-17T03:17:10;16.70;97.40
20977;DHT22;10647;51.016;3.720;2022-07-17T03:19:37;16.60;97.50
20977;DHT22;10647;51.016;3.720;2022-07-17T03:22:05;16.60;97.70
20977;DHT22;10647;51.016;3.720;2022-07-17T03:24:33;16.60;97.90
20977;DHT22;10647;51.016;3.720;2022-07-17T03:27:00;16.60;98.20
20977;DHT22;10647;51.016;3.720;2022-07-17T03:29:29;16.60;98.40
20977;DHT22;10647;51.016;3.720;2022-07-17T03:31:56;16.60;98.60
20977;DHT22;10647;51.016;3.720;2022-07-17T03:34:24;16.60;99.00
20977;DHT22;10647;51.016;3.720;2022-07-17T03:36:51;16.60;99.40
20977;DHT22;10647;51.016;3.720;2022-07-17T03:39:19;16.50;99.60
20977;DHT22;10647;51.016;3.720;2022-07-17T03:41:47;16.50;99.90
20977;DHT22;10647;51.016;3.720;2022-07-17T03:44:14;16.50;99.90
20977;DHT22;10647;51.016;3.720;2022-07-17T03:46:42;16.50;99.90
20977;DHT22;10647;51.016;3.720;2022-07-17T03:49:09;16.50;99.90
20977;DHT22;10647;51.016;3.720;2022-07-17T03:51:38;16.50;99.90
20977;DHT22;10647;51.016;3.720;2022-07-17T03:54:05;16.40;99.90
20977;DHT22;10647;51.016;3.720;2022-07-17T03:56:33;16.50;99.90
20977;DHT22;10647;51.016;3.720;2022-07-17T03:59:00;16.40;99.90
20977;DHT22;10647;51.016;3.720;2022-07-17T04:01:28;16.50;99.90
20977;DHT22;10647;51.016;3.720;2022-07-17T04:03:56;16.50;99.90
20977;DHT22;10647;51.016;3.720;2022-07-17T04:06:23;16.40;99.90
20977;DHT22;10647;51.016;3.720;2022-07-17T04:08:51;16.50;99.90
20977;DHT22;10647;51.016;3.720;2022-07-17T04:11:19;16.50;99.90
20977;DHT22;10647;51.016;3.720;2022-07-17T04:14:06;16.50;99.90
20977;DHT22;10647;51.016;3.720;2022-07-17T04:16:33;16.50;99.90
20977;DHT22;10647;51.016;3.720;2022-07-17T04:19:01;16.50;99.90
20977;DHT22;10647;51.016;3.720;2022-07-17T04:21:29;16.50;99.90
20977;DHT22;10647;51.016;3.720;2022-07-17T04:23:57;16.60;99.90
20977;DHT22;10647;51.016;3.720;2022-07-17T04:26:25;16.60;99.90
20977;DHT22;10647;51.016;3.720;2022-07-17T04:28:52;16.60;99.90
20977;DHT22;10647;51.016;3.720;2022-07-17T04:31:20;16.70;99.90
20977;DHT22;10647;51.016;3.720;2022-07-17T04:33:47;16.70;99.90
20977;DHT22;10647;51.016;3.720;2022-07-17T04:36:16;16.80;99.90
20977;DHT22;10647;51.016;3.720;2022-07-17T04:38:44;16.80;99.90
20977;DHT22;10647;51.016;3.720;2022-07-17T04:41:12;16.90;99.90
20977;DHT22;10647;51.016;3.720;2022-07-17T04:43:39;16.90;99.90
20977;DHT22;10647;51.016;3.720;2022-07-17T04:46:09;17.00;99.90
20977;DHT22;10647;51.016;3.720;2022-07-17T04:48:36;17.00;99.90
20977;DHT22;10647;51.016;3.720;2022-07-17T04:51:04;17.10;99.90
20977;DHT22;10647;51.016;3.720;2022-07-17T04:53:31;17.10;99.90
20977;DHT22;10647;51.016;3.720;2022-07-17T04:56:00;17.20;99.90
20977;DHT22;10647;51.016;3.720;2022-07-17T04:58:27;17.30;99.90
20977;DHT22;10647;51.016;3.720;2022-07-17T05:00:55;17.30;99.90
20977;DHT22;10647;51.016;3.720;2022-07-17T05:03:22;17.40;99.90
20977;DHT22;10647;51.016;3.720;2022-07-17T05:05:50;17.40;99.90
20977;DHT22;10647;51.016;3.720;2022-07-17T05:08:17;17.50;99.90
20977;DHT22;10647;51.016;3.720;2022-07-17T05:10:45;17.50;99.90
20977;DHT22;10647;51.016;3.720;2022-07-17T05:13:13;17.60;99.90
20977;DHT22;10647;51.016;3.720;2022-07-17T05:15:40;17.60;99.90
20977;DHT22;10647;51.016;3.720;2022-07-17T05:18:08;17.70;99.90
20977;DHT22;10647;51.016;3.720;2022-07-17T05:20:36;17.80;99.90
20977;DHT22;10647;51.016;3.720;2022-07-17T05:23:03;17.80;99.90
20977;DHT22;10647;51.016;3.720;2022-07-17T05:25:31;17.90;99.90
20977;DHT22;10647;51.016;3.720;2022-07-17T05:27:59;17.90;99.90
20977;DHT22;10647;51.016;3.720;2022-07-17T05:30:29;18.00;99.90
20977;DHT22;10647;51.016;3.720;2022-07-17T05:32:56;18.00;99.90
20977;DHT22;10647;51.016;3.720;2022-07-17T05:35:25;18.10;99.90
20977;DHT22;10647;51.016;3.720;2022-07-17T05:37:52;18.10;99.90
20977;DHT22;10647;51.016;3.720;2022-07-17T05:40:21;18.20;99.90
20977;DHT22;10647;51.016;3.720;2022-07-17T05:42:51;18.20;99.90
20977;DHT22;10647;51.016;3.720;2022-07-17T05:45:18;18.30;99.90
20977;DHT22;10647;51.016;3.720;2022-07-17T05:47:46;18.30;99.90
20977;DHT22;10647;51.016;3.720;2022-07-17T05:50:21;18.40;99.90
20977;DHT22;10647;51.016;3.720;2022-07-17T05:52:51;18.50;99.90
20977;DHT22;10647;51.016;3.720;2022-07-17T05:55:21;18.60;99.90
20977;DHT22;10647;51.016;3.720;2022-07-17T05:57:51;18.60;99.90
20977;DHT22;10647;51.016;3.720;2022-07-17T06:00:25;18.80;99.90
20977;DHT22;10647;51.016;3.720;2022-07-17T06:02:59;18.80;99.90
20977;DHT22;10647;51.016;3.720;2022-07-17T06:08:24;19.00;99.90
20977;DHT22;10647;51.016;3.720;2022-07-17T06:11:01;19.00;99.90
20977;DHT22;10647;51.016;3.720;2022-07-17T06:13:32;19.10;99.90
20977;DHT22;10647;51.016;3.720;2022-07-17T06:15:59;19.10;99.90
20977;DHT22;10647;51.016;3.720;2022-07-17T06:18:27;19.10;99.90
20977;DHT22;10647;51.016;3.720;2022-07-17T06:20:57;19.20;99.90
20977;DHT22;10647;51.016;3.720;2022-07-17T06:23:30;19.30;99.90
20977;DHT22;10647;51.016;3.720;2022-07-17T06:25:58;19.40;99.90
20977;DHT22;10647;51.016;3.720;2022-07-17T06:28:28;19.50;99.90
20977;DHT22;10647;51.016;3.720;2022-07-17T06:30:58;19.50;99.90
20977;DHT22;10647;51.016;3.720;2022-07-17T06:33:27;19.60;99.90
20977;DHT22;10647;51.016;3.720;2022-07-17T06:36:01;19.70;99.90
20977;DHT22;10647;51.016;3.720;2022-07-17T06:38:37;19.80;99.60
20977;DHT22;10647;51.016;3.720;2022-07-17T06:41:07;19.90;99.30
20977;DHT22;10647;51.016;3.720;2022-07-17T06:43:38;19.90;99.10
20977;DHT22;10647;51.016;3.720;2022-07-17T06:46:06;20.00;99.00
20977;DHT22;10647;51.016;3.720;2022-07-17T06:48:40;20.10;98.70
20977;DHT22;10647;51.016;3.720;2022-07-17T06:51:10;20.30;98.50
20977;DHT22;10647;51.016;3.720;2022-07-17T06:53:38;20.30;98.10
20977;DHT22;10647;51.016;3.720;2022-07-17T06:56:07;20.40;97.70
20977;DHT22;10647;51.016;3.720;2022-07-17T06:58:35;20.50;97.50
20977;DHT22;10647;51.016;3.720;2022-07-17T07:01:37;20.60;97.20
20977;DHT22;10647;51.016;3.720;2022-07-17T07:04:06;20.70;96.90
20977;DHT22;10647;51.016;3.720;2022-07-17T07:06:36;20.80;96.60
20977;DHT22;10647;51.016;3.720;2022-07-17T07:09:05;20.80;96.50
20977;DHT22;10647;51.016;3.720;2022-07-17T07:11:39;20.90;96.30
20977;DHT22;10647;51.016;3.720;2022-07-17T07:14:07;21.00;96.00
20977;DHT22;10647;51.016;3.720;2022-07-17T07:16:35;21.10;95.70
20977;DHT22;10647;51.016;3.720;2022-07-17T07:19:03;21.20;95.50
20977;DHT22;10647;51.016;3.720;2022-07-17T07:21:37;21.30;95.40
20977;DHT22;10647;51.016;3.720;2022-07-17T07:24:04;21.30;95.20
20977;DHT22;10647;51.016;3.720;2022-07-17T07:26:32;21.40;95.10
20977;DHT22;10647;51.016;3.720;2022-07-17T07:28:59;21.50;94.90
20977;DHT22;10647;51.016;3.720;2022-07-17T07:31:27;21.60;94.70
20977;DHT22;10647;51.016;3.720;2022-07-17T07:33:54;21.70;94.50
20977;DHT22;10647;51.016;3.720;2022-07-17T07:36:22;21.80;94.20
20977;DHT22;10647;51.016;3.720;2022-07-17T07:38:50;21.90;94.00
20977;DHT22;10647;51.016;3.720;2022-07-17T07:41:23;22.00;93.70
20977;DHT22;10647;51.016;3.720;2022-07-17T07:43:51;22.10;93.40
20977;DHT22;10647;51.016;3.720;2022-07-17T07:46:18;22.10;93.10
20977;DHT22;10647;51.016;3.720;2022-07-17T07:48:46;22.20;93.00
20977;DHT22;10647;51.016;3.720;2022-07-17T07:51:13;22.30;92.90
20977;DHT22;10647;51.016;3.720;2022-07-17T07:53:41;22.40;92.70
20977;DHT22;10647;51.016;3.720;2022-07-17T07:56:09;22.50;92.40
20977;DHT22;10647;51.016;3.720;2022-07-17T07:58:36;22.60;92.10
20977;DHT22;10647;51.016;3.720;2022-07-17T08:01:04;22.70;91.90
20977;DHT22;10647;51.016;3.720;2022-07-17T08:03:32;22.80;91.70
20977;DHT22;10647;51.016;3.720;2022-07-17T08:06:00;22.80;91.50
20977;DHT22;10647;51.016;3.720;2022-07-17T08:08:28;23.00;91.20
20977;DHT22;10647;51.016;3.720;2022-07-17T08:10:55;23.00;91.10
20977;DHT22;10647;51.016;3.720;2022-07-17T08:13:23;23.10;90.70
20977;DHT22;10647;51.016;3.720;2022-07-17T08:15:50;23.20;90.60
20977;DHT22;10647;51.016;3.720;2022-07-17T08:18:18;23.30;90.60
20977;DHT22;10647;51.016;3.720;2022-07-17T08:20:46;23.30;90.00
20977;DHT22;10647;51.016;3.720;2022-07-17T08:23:14;23.40;90.00
20977;DHT22;10647;51.016;3.720;2022-07-17T08:25:41;23.50;89.20
20977;DHT22;10647;51.016;3.720;2022-07-17T08:28:10;23.70;88.60
20977;DHT22;10647;51.016;3.720;2022-07-17T08:30:38;24.00;88.50
20977;DHT22;10647;51.016;3.720;2022-07-17T08:33:07;24.30;87.40
20977;DHT22;10647;51.016;3.720;2022-07-17T08:35:36;24.60;85.60
20977;DHT22;10647;51.016;3.720;2022-07-17T08:38:10;24.80;84.40
20977;DHT22;10647;51.016;3.720;2022-07-17T08:40:38;25.10;83.90
20977;DHT22;10647;51.016;3.720;2022-07-17T08:43:07;25.50;83.30
20977;DHT22;10647;51.016;3.720;2022-07-17T08:45:37;25.70;82.20
20977;DHT22;10647;51.016;3.720;2022-07-17T08:48:05;26.00;81.50
20977;DHT22;10647;51.016;3.720;2022-07-17T08:50:35;26.30;80.60
20977;DHT22;10647;51.016;3.720;2022-07-17T08:53:03;26.60;79.70
20977;DHT22;10647;51.016;3.720;2022-07-17T08:55:31;26.60;78.80
20977;DHT22;10647;51.016;3.720;2022-07-17T08:57:59;26.40;77.70
20977;DHT22;10647;51.016;3.720;2022-07-17T09:00:27;26.30;77.60
20977;DHT22;10647;51.016;3.720;2022-07-17T09:03:01;26.20;77.90
20977;DHT22;10647;51.016;3.720;2022-07-17T09:05:39;26.00;77.90
20977;DHT22;10647;51.016;3.720;2022-07-17T09:08:09;25.80;78.00
20977;DHT22;10647;51.016;3.720;2022-07-17T09:10:42;25.70;78.70
20977;DHT22;10647;51.016;3.720;2022-07-17T09:13:25;25.50;78.30
20977;DHT22;10647;51.016;3.720;2022-07-17T09:15:59;25.50;78.00
20977;DHT22;10647;51.016;3.720;2022-07-17T09:18:23;25.40;77.40
20977;DHT22;10647;51.016;3.720;2022-07-17T09:20:55;25.40;77.00
20977;DHT22;10647;51.016;3.720;2022-07-17T09:23:25;25.30;77.30
20977;DHT22;10647;51.016;3.720;2022-07-17T09:25:55;25.20;77.50
20977;DHT22;10647;51.016;3.720;2022-07-17T09:28:24;25.30;77.80
20977;DHT22;10647;51.016;3.720;2022-07-17T09:30:54;25.30;78.10
20977;DHT22;10647;51.016;3.720;2022-07-17T09:33:25;25.30;77.60
20977;DHT22;10647;51.016;3.720;2022-07-17T09:36:07;25.40;77.30
20977;DHT22;10647;51.016;3.720;2022-07-17T09:38:40;25.50;77.20
20977;DHT22;10647;51.016;3.720;2022-07-17T09:44:03;25.70;76.40
20977;DHT22;10647;51.016;3.720;2022-07-17T09:46:32;25.70;76.20
20977;DHT22;10647;51.016;3.720;2022-07-17T09:49:06;25.70;76.20
20977;DHT22;10647;51.016;3.720;2022-07-17T09:51:32;25.70;74.90
20977;DHT22;10647;51.016;3.720;2022-07-17T09:54:02;25.90;74.30
20977;DHT22;10647;51.016;3.720;2022-07-17T09:56:32;26.00;74.10
20977;DHT22;10647;51.016;3.720;2022-07-17T09:59:03;25.90;74.40
20977;DHT22;10647;51.016;3.720;2022-07-17T10:01:32;26.00;73.90
20977;DHT22;10647;51.016;3.720;2022-07-17T10:04:00;26.00;74.10
20977;DHT22;10647;51.016;3.720;2022-07-17T10:06:29;26.10;73.60
20977;DHT22;10647;51.016;3.720;2022-07-17T10:08:57;26.30;73.20
20977;DHT22;10647;51.016;3.720;2022-07-17T10:11:27;26.30;72.90
20977;DHT22;10647;51.016;3.720;2022-07-17T10:14:00;26.40;72.90
20977;DHT22;10647;51.016;3.720;2022-07-17T10:16:28;26.50;72.40
20977;DHT22;10647;51.016;3.720;2022-07-17T10:18:57;26.70;72.00
20977;DHT22;10647;51.016;3.720;2022-07-17T10:21:26;26.80;71.30
20977;DHT22;10647;51.016;3.720;2022-07-17T10:26:33;26.90;70.50
20977;DHT22;10647;51.016;3.720;2022-07-17T10:29:01;26.90;69.50
20977;DHT22;10647;51.016;3.720;2022-07-17T10:31:30;27.00;69.50
20977;DHT22;10647;51.016;3.720;2022-07-17T10:34:05;27.10;69.10
20977;DHT22;10647;51.016;3.720;2022-07-17T10:36:37;27.10;68.50
20977;DHT22;10647;51.016;3.720;2022-07-17T10:39:16;27.10;67.90
20977;DHT22;10647;51.016;3.720;2022-07-17T10:41:55;27.10;67.80
20977;DHT22;10647;51.016;3.720;2022-07-17T10:44:28;27.20;68.10
20977;DHT22;10647;51.016;3.720;2022-07-17T10:46:56;27.40;67.40
20977;DHT22;10647;51.016;3.720;2022-07-17T10:49:25;27.50;67.40
20977;DHT22;10647;51.016;3.720;2022-07-17T10:51:53;27.60;66.90
20977;DHT22;10647;51.016;3.720;2022-07-17T10:54:32;27.60;66.30
20977;DHT22;10647;51.016;3.720;2022-07-17T10:56:51;27.70;66.70
20977;DHT22;10647;51.016;3.720;2022-07-17T10:59:20;27.80;66.80
20977;DHT22;10647;51.016;3.720;2022-07-17T11:01:55;27.80;66.60
20977;DHT22;10647;51.016;3.720;2022-07-17T11:04:19;27.90;66.90
20977;DHT22;10647;51.016;3.720;2022-07-17T11:06:46;28.00;66.00
20977;DHT22;10647;51.016;3.720;2022-07-17T11:09:14;28.10;66.00
20977;DHT22;10647;51.016;3.720;2022-07-17T11:11:43;28.20;65.90
20977;DHT22;10647;51.016;3.720;2022-07-17T11:14:19;28.20;66.10
20977;DHT22;10647;51.016;3.720;2022-07-17T11:16:48;28.30;65.90
20977;DHT22;10647;51.016;3.720;2022-07-17T11:19:39;28.30;64.90
20977;DHT22;10647;51.016;3.720;2022-07-17T11:22:11;28.40;65.20
20977;DHT22;10647;51.016;3.720;2022-07-17T11:24:44;28.50;64.40
20977;DHT22;10647;51.016;3.720;2022-07-17T11:27:12;28.50;64.00
20977;DHT22;10647;51.016;3.720;2022-07-17T11:29:41;28.60;63.50
20977;DHT22;10647;51.016;3.720;2022-07-17T11:32:09;28.70;63.80
20977;DHT22;10647;51.016;3.720;2022-07-17T11:34:37;28.80;63.00
20977;DHT22;10647;51.016;3.720;2022-07-17T11:37:06;28.80;63.50
20977;DHT22;10647;51.016;3.720;2022-07-17T11:39:39;28.90;64.40
20977;DHT22;10647;51.016;3.720;2022-07-17T11:42:10;29.00;64.70
20977;DHT22;10647;51.016;3.720;2022-07-17T11:44:38;29.10;63.80
20977;DHT22;10647;51.016;3.720;2022-07-17T11:47:06;29.10;63.70
20977;DHT22;10647;51.016;3.720;2022-07-17T11:49:39;29.10;63.90
20977;DHT22;10647;51.016;3.720;2022-07-17T11:52:12;29.10;63.30
20977;DHT22;10647;51.016;3.720;2022-07-17T11:54:56;29.20;63.20
20977;DHT22;10647;51.016;3.720;2022-07-17T11:57:26;29.20;62.30
20977;DHT22;10647;51.016;3.720;2022-07-17T12:00:04;29.30;61.90
20977;DHT22;10647;51.016;3.720;2022-07-17T12:02:28;29.30;61.40
20977;DHT22;10647;51.016;3.720;2022-07-17T12:04:58;29.30;60.70
20977;DHT22;10647;51.016;3.720;2022-07-17T12:07:38;29.40;60.00
20977;DHT22;10647;51.016;3.720;2022-07-17T12:09:56;29.60;59.70
20977;DHT22;10647;51.016;3.720;2022-07-17T12:12:25;29.70;59.80
20977;DHT22;10647;51.016;3.720;2022-07-17T12:14:55;29.90;59.60
20977;DHT22;10647;51.016;3.720;2022-07-17T12:17:25;30.10;58.60
20977;DHT22;10647;51.016;3.720;2022-07-17T12:19:53;30.10;55.40
20977;DHT22;10647;51.016;3.720;2022-07-17T12:22:21;30.10;54.60
20977;DHT22;10647;51.016;3.720;2022-07-17T12:24:48;30.10;53.70
20977;DHT22;10647;51.016;3.720;2022-07-17T12:27:17;30.20;53.70
20977;DHT22;10647;51.016;3.720;2022-07-17T12:29:44;30.30;54.70
20977;DHT22;10647;51.016;3.720;2022-07-17T12:32:31;30.30;55.20
20977;DHT22;10647;51.016;3.720;2022-07-17T12:35:00;30.50;55.50
20977;DHT22;10647;51.016;3.720;2022-07-17T12:37:28;30.60;54.40
20977;DHT22;10647;51.016;3.720;2022-07-17T12:39:57;30.70;53.50
20977;DHT22;10647;51.016;3.720;2022-07-17T12:42:25;30.90;52.70
20977;DHT22;10647;51.016;3.720;2022-07-17T12:44:53;31.00;50.60
20977;DHT22;10647;51.016;3.720;2022-07-17T12:47:27;31.20;49.90
20977;DHT22;10647;51.016;3.720;2022-07-17T12:49:55;31.30;49.70
20977;DHT22;10647;51.016;3.720;2022-07-17T12:52:23;31.40;50.40
20977;DHT22;10647;51.016;3.720;2022-07-17T12:54:51;31.60;50.90
20977;DHT22;10647;51.016;3.720;2022-07-17T12:57:18;31.80;51.00
20977;DHT22;10647;51.016;3.720;2022-07-17T12:59:46;31.80;50.80
20977;DHT22;10647;51.016;3.720;2022-07-17T13:02:14;31.90;51.00
20977;DHT22;10647;51.016;3.720;2022-07-17T13:04:44;32.00;51.60
20977;DHT22;10647;51.016;3.720;2022-07-17T13:07:11;32.30;51.80
20977;DHT22;10647;51.016;3.720;2022-07-17T13:09:40;33.60;50.70
20977;DHT22;10647;51.016;3.720;2022-07-17T13:12:09;37.70;47.70
20977;DHT22;10647;51.016;3.720;2022-07-17T13:14:37;41.00;44.60
20977;DHT22;10647;51.016;3.720;2022-07-17T13:17:06;43.50;41.50
20977;DHT22;10647;51.016;3.720;2022-07-17T13:19:34;45.30;39.30
20977;DHT22;10647;51.016;3.720;2022-07-17T13:22:03;46.60;37.60
20977;DHT22;10647;51.016;3.720;2022-07-17T13:24:31;47.30;35.90
20977;DHT22;10647;51.016;3.720;2022-07-17T13:27:01;48.00;34.90
20977;DHT22;10647;51.016;3.720;2022-07-17T13:29:28;49.20;33.50
20977;DHT22;10647;51.016;3.720;2022-07-17T13:31:56;49.80;32.50
20977;DHT22;10647;51.016;3.720;2022-07-17T13:34:24;49.80;32.00
20977;DHT22;10647;51.016;3.720;2022-07-17T13:36:51;50.20;31.70
20977;DHT22;10647;51.016;3.720;2022-07-17T13:39:19;51.00;31.00
20977;DHT22;10647;51.016;3.720;2022-07-17T13:41:46;51.10;30.40
20977;DHT22;10647;51.016;3.720;2022-07-17T13:44:16;51.40;30.00
20977;DHT22;10647;51.016;3.720;2022-07-17T13:46:44;51.50;29.10
20977;DHT22;10647;51.016;3.720;2022-07-17T13:49:12;51.40;28.90
20977;DHT22;10647;51.016;3.720;2022-07-17T13:51:42;51.50;29.50
20977;DHT22;10647;51.016;3.720;2022-07-17T13:54:09;51.60;28.00
20977;DHT22;10647;51.016;3.720;2022-07-17T13:56:37;51.80;28.50
20977;DHT22;10647;51.016;3.720;2022-07-17T13:59:05;51.90;29.10
20977;DHT22;10647;51.016;3.720;2022-07-17T14:01:32;51.70;29.00
20977;DHT22;10647;51.016;3.720;2022-07-17T14:04:01;51.30;29.20
20977;DHT22;10647;51.016;3.720;2022-07-17T14:06:29;51.60;28.90
20977;DHT22;10647;51.016;3.720;2022-07-17T14:08:57;51.50;28.90
20977;DHT22;10647;51.016;3.720;2022-07-17T14:11:25;51.50;28.90
20977;DHT22;10647;51.016;3.720;2022-07-17T14:13:53;51.20;28.60
20977;DHT22;10647;51.016;3.720;2022-07-17T14:16:20;51.00;28.60
20977;DHT22;10647;51.016;3.720;2022-07-17T14:18:48;51.10;29.00
20977;DHT22;10647;51.016;3.720;2022-07-17T14:21:32;51.80;28.80
20977;DHT22;10647;51.016;3.720;2022-07-17T14:24:02;52.40;28.90
20977;DHT22;10647;51.016;3.720;2022-07-17T14:26:29;52.70;27.90
20977;DHT22;10647;51.016;3.720;2022-07-17T14:28:59;52.90;27.90
20977;DHT22;10647;51.016;3.720;2022-07-17T14:31:27;53.00;27.80
20977;DHT22;10647;51.016;3.720;2022-07-17T14:33:54;53.40;28.10
20977;DHT22;10647;51.016;3.720;2022-07-17T14:36:22;53.80;27.90
20977;DHT22;10647;51.016;3.720;2022-07-17T14:38:49;54.10;27.70
20977;DHT22;10647;51.016;3.720;2022-07-17T14:41:17;53.90;27.40
20977;DHT22;10647;51.016;3.720;2022-07-17T14:43:45;53.40;27.60
20977;DHT22;10647;51.016;3.720;2022-07-17T14:46:12;52.70;27.70
20977;DHT22;10647;51.016;3.720;2022-07-17T14:48:40;52.40;27.70
20977;DHT22;10647;51.016;3.720;2022-07-17T14:51:07;52.00;27.90
20977;DHT22;10647;51.016;3.720;2022-07-17T14:53:35;52.20;28.10
20977;DHT22;10647;51.016;3.720;2022-07-17T14:56:03;52.00;28.00
20977;DHT22;10647;51.016;3.720;2022-07-17T14:58:30;52.00;27.80
20977;DHT22;10647;51.016;3.720;2022-07-17T15:00:59;52.30;27.80
20977;DHT22;10647;51.016;3.720;2022-07-17T15:03:27;52.50;27.50
20977;DHT22;10647;51.016;3.720;2022-07-17T15:05:54;52.10;27.30
20977;DHT22;10647;51.016;3.720;2022-07-17T15:08:25;51.90;27.30
20977;DHT22;10647;51.016;3.720;2022-07-17T15:10:52;52.00;27.20
20977;DHT22;10647;51.016;3.720;2022-07-17T15:13:20;52.00;27.30
20977;DHT22;10647;51.016;3.720;2022-07-17T15:15:49;52.30;27.40
20977;DHT22;10647;51.016;3.720;2022-07-17T15:18:17;52.20;27.20
20977;DHT22;10647;51.016;3.720;2022-07-17T15:20:44;52.00;27.40
20977;DHT22;10647;51.016;3.720;2022-07-17T15:23:12;52.30;27.40
20977;DHT22;10647;51.016;3.720;2022-07-17T15:25:40;51.80;27.20
20977;DHT22;10647;51.016;3.720;2022-07-17T15:28:08;51.00;27.30
20977;DHT22;10647;51.016;3.720;2022-07-17T15:30:35;50.70;27.40
20977;DHT22;10647;51.016;3.720;2022-07-17T15:33:03;50.90;27.40
20977;DHT22;10647;51.016;3.720;2022-07-17T15:35:31;50.80;27.30
20977;DHT22;10647;51.016;3.720;2022-07-17T15:37:58;50.50;27.50
20977;DHT22;10647;51.016;3.720;2022-07-17T15:40:26;50.60;27.60
20977;DHT22;10647;51.016;3.720;2022-07-17T15:42:53;50.70;27.40
20977;DHT22;10647;51.016;3.720;2022-07-17T15:45:21;50.00;27.30
20977;DHT22;10647;51.016;3.720;2022-07-17T15:47:49;48.30;27.50
20977;DHT22;10647;51.016;3.720;2022-07-17T15:50:17;46.40;28.40